createdAt,value
2022-12-11T00:02:08.335Z,19.73
2022-12-11T00:07:01.432Z,18.13
2022-12-11T00:09:27.988Z,21.15
2022-12-11T00:11:54.667Z,21.02
2022-12-11T00:14:21.253Z,20.92
2022-12-11T00:16:49.324Z,20.20
2022-12-11T00:19:16.275Z,20.87
2022-12-11T00:21:42.790Z,19.95
2022-12-11T00:24:09.678Z,19.35
2022-12-11T00:26:36.287Z,20.20
2022-12-11T00:29:03.669Z,20.42
2022-12-11T00:31:30.223Z,18.47
2022-12-11T00:33:56.766Z,19.98
2022-12-11T00:36:25.957Z,18.25
2022-12-11T00:38:53.993Z,17.77
2022-12-11T00:41:20.627Z,19.43
2022-12-11T00:43:47.514Z,18.33
2022-12-11T00:48:40.537Z,17.27
2022-12-11T00:51:07.842Z,18.50
2022-12-11T00:53:34.403Z,18.33
2022-12-11T00:56:01.011Z,15.15
2022-12-11T00:58:27.831Z,19.67
2022-12-11T01:00:54.626Z,18.48
2022-12-11T01:03:21.228Z,18.20
2022-12-11T01:05:53.219Z,18.73
2022-12-11T01:08:19.822Z,18.90
2022-12-11T01:10:46.452Z,19.90
2022-12-11T01:13:13.230Z,19.65
2022-12-11T01:15:43.113Z,19.15
2022-12-11T01:18:11.458Z,19.33
2022-12-11T01:20:40.145Z,19.47
2022-12-11T01:23:07.024Z,19.40
2022-12-11T01:25:35.663Z,18.25
2022-12-11T01:28:02.175Z,19.47
2022-12-11T01:30:28.820Z,20.40
2022-12-11T01:32:55.464Z,19.50
2022-12-11T01:35:22.035Z,20.30
2022-12-11T01:37:48.648Z,19.65
2022-12-11T01:40:19.085Z,19.73
2022-12-11T01:42:45.685Z,19.83
2022-12-11T01:45:41.996Z,19.67
2022-12-11T01:48:13.486Z,19.20
2022-12-11T01:50:52.463Z,17.57
2022-12-11T01:53:28.960Z,19.00
2022-12-11T01:55:58.558Z,16.95
2022-12-11T01:58:29.664Z,17.35
2022-12-11T02:00:57.442Z,17.97
2022-12-11T02:03:24.067Z,17.67
2022-12-11T02:05:50.603Z,18.27
2022-12-11T02:08:17.592Z,16.83
2022-12-11T02:13:28.426Z,16.83
2022-12-11T02:16:14.284Z,17.43
2022-12-11T02:19:06.258Z,16.52
2022-12-11T02:21:41.125Z,17.03
2022-12-11T02:24:30.230Z,18.83
2022-12-11T02:27:18.565Z,17.65
2022-12-11T02:29:57.924Z,17.47
2022-12-11T02:32:53.539Z,16.60
2022-12-11T02:35:26.501Z,15.98
2022-12-11T02:37:59.221Z,17.30
2022-12-11T02:40:30.175Z,17.10
2022-12-11T02:43:00.041Z,17.43
2022-12-11T02:45:28.559Z,17.33
2022-12-11T02:47:57.774Z,17.93
2022-12-11T02:50:26.567Z,17.90
2022-12-11T02:52:57.559Z,16.47
2022-12-11T02:55:27.942Z,18.03
2022-12-11T02:58:06.444Z,18.53
2022-12-11T03:00:33.033Z,17.13
2022-12-11T03:02:59.630Z,16.05
2022-12-11T03:05:27.942Z,17.00
2022-12-11T03:07:54.541Z,17.30
2022-12-11T03:10:21.240Z,17.52
2022-12-11T03:12:53.798Z,17.17
2022-12-11T03:15:30.334Z,17.37
2022-12-11T03:18:09.754Z,16.90
2022-12-11T03:20:54.483Z,16.83
2022-12-11T03:23:40.078Z,17.63
2022-12-11T03:26:11.260Z,17.83
2022-12-11T03:28:46.764Z,18.13
2022-12-11T03:31:21.421Z,19.40
2022-12-11T03:33:53.158Z,16.90
2022-12-11T03:36:25.330Z,18.40
2022-12-11T03:38:58.403Z,18.23
2022-12-11T03:41:27.821Z,19.00
2022-12-11T03:43:57.196Z,17.87
2022-12-11T03:46:30.056Z,17.93
2022-12-11T03:49:01.867Z,19.30
2022-12-11T03:51:30.830Z,18.23
2022-12-11T03:53:58.532Z,18.43
2022-12-11T03:56:26.736Z,17.23
2022-12-11T03:58:53.390Z,16.30
2022-12-11T04:01:20.260Z,18.05
2022-12-11T04:03:46.876Z,18.00
2022-12-11T04:06:13.354Z,18.75
2022-12-11T04:08:39.841Z,17.98
2022-12-11T04:11:24.874Z,16.95
2022-12-11T04:14:11.344Z,18.03
2022-12-11T04:16:38.252Z,16.95
2022-12-11T04:22:08.539Z,13.13
2022-12-11T04:24:35.153Z,16.30
2022-12-11T04:27:01.617Z,17.50
2022-12-11T04:29:28.141Z,19.00
2022-12-11T04:31:55.097Z,16.88
2022-12-11T04:36:48.031Z,16.10
2022-12-11T04:39:14.618Z,17.10
2022-12-11T04:41:41.728Z,17.70
2022-12-11T04:44:08.684Z,18.53
2022-12-11T04:49:01.775Z,16.40
2022-12-11T04:51:28.804Z,18.40
2022-12-11T04:56:21.975Z,18.35
2022-12-11T04:58:48.524Z,17.63
2022-12-11T05:01:18.255Z,18.00
2022-12-11T05:03:45.466Z,19.40
2022-12-11T05:06:12.148Z,19.30
2022-12-11T05:08:40.362Z,17.77
2022-12-11T05:11:10.847Z,19.93
2022-12-11T05:13:38.003Z,17.20
2022-12-11T05:16:06.388Z,18.83
2022-12-11T05:18:32.982Z,18.40
2022-12-11T05:21:05.632Z,17.27
2022-12-11T05:23:32.491Z,17.57
2022-12-11T05:26:01.896Z,17.17
2022-12-11T05:28:31.252Z,17.67
2022-12-11T05:31:00.369Z,18.07
2022-12-11T05:33:27.521Z,17.03
2022-12-11T05:35:54.025Z,18.43
2022-12-11T05:38:21.577Z,17.23
2022-12-11T05:40:59.373Z,15.20
2022-12-11T05:43:27.381Z,15.97
2022-12-11T05:45:54.800Z,16.23
2022-12-11T05:48:21.615Z,17.43
2022-12-11T05:50:59.089Z,17.95
2022-12-11T05:53:26.040Z,18.27
2022-12-11T05:58:19.593Z,18.60
2022-12-11T06:00:46.568Z,19.73
2022-12-11T06:08:09.947Z,17.20
2022-12-11T06:10:36.522Z,16.53
2022-12-11T06:13:03.130Z,18.25
2022-12-11T06:15:29.669Z,18.65
2022-12-11T06:17:56.215Z,17.33
2022-12-11T06:20:22.728Z,17.60
2022-12-11T06:22:49.276Z,18.58
2022-12-11T06:25:15.812Z,17.15
2022-12-11T06:27:42.257Z,18.13
2022-12-11T06:30:09.283Z,19.30
2022-12-11T06:32:35.787Z,18.50
2022-12-11T06:35:02.272Z,17.83
2022-12-11T06:37:28.908Z,18.20
2022-12-11T06:39:55.440Z,18.80
2022-12-11T06:42:21.975Z,18.27
2022-12-11T06:44:48.535Z,18.65
2022-12-11T06:47:15.043Z,19.20
2022-12-11T06:49:41.666Z,17.95
2022-12-11T06:52:08.229Z,18.92
2022-12-11T06:54:34.760Z,17.38
2022-12-11T06:57:01.268Z,18.65
2022-12-11T06:59:27.796Z,17.40
2022-12-11T07:01:54.463Z,18.42
2022-12-11T07:04:24.677Z,19.08
2022-12-11T07:06:51.640Z,18.73
2022-12-11T07:11:44.557Z,18.73
2022-12-11T07:14:11.322Z,19.52
2022-12-11T07:16:37.910Z,19.27
2022-12-11T07:19:05.055Z,19.48
2022-12-11T07:21:31.551Z,20.23
2022-12-11T07:23:58.834Z,20.85
2022-12-11T07:26:25.374Z,17.53
2022-12-11T07:28:52.509Z,17.70
2022-12-11T07:31:23.189Z,17.33
2022-12-11T07:33:58.254Z,19.60
2022-12-11T07:36:25.376Z,17.53
2022-12-11T07:38:52.061Z,16.97
2022-12-11T07:41:18.965Z,17.65
2022-12-11T07:43:46.558Z,17.63
2022-12-11T07:46:19.374Z,15.77
2022-12-11T07:48:47.530Z,15.20
2022-12-11T07:51:22.858Z,14.17
2022-12-11T07:53:50.113Z,14.03
2022-12-11T07:56:17.868Z,14.60
2022-12-11T07:58:44.998Z,15.03
2022-12-11T08:01:20.556Z,14.13
2022-12-11T08:03:47.589Z,13.17
2022-12-11T08:11:11.410Z,14.20
2022-12-11T08:13:38.578Z,15.73
2022-12-11T08:16:06.791Z,15.47
2022-12-11T08:18:34.908Z,17.27
2022-12-11T08:21:08.485Z,13.93
2022-12-11T08:23:35.434Z,14.97
2022-12-11T08:26:04.259Z,16.38
2022-12-11T08:28:30.951Z,35.87
2022-12-11T08:30:58.121Z,16.60
2022-12-11T08:33:25.368Z,13.80
2022-12-11T08:35:52.000Z,15.40
2022-12-11T08:38:22.307Z,14.48
2022-12-11T08:40:51.774Z,13.00
2022-12-11T08:43:18.282Z,16.08
2022-12-11T08:45:46.777Z,33.05
2022-12-11T08:48:13.349Z,20.87
2022-12-11T08:50:39.863Z,22.83
2022-12-11T08:53:06.346Z,13.95
2022-12-11T08:55:33.624Z,13.52
2022-12-11T08:58:00.311Z,11.47
2022-12-11T09:00:26.829Z,14.10
2022-12-11T09:02:53.335Z,10.90
2022-12-11T09:05:19.905Z,16.00
2022-12-11T09:07:46.374Z,15.82
2022-12-11T09:10:12.925Z,15.95
2022-12-11T09:12:39.662Z,12.25
2022-12-11T09:15:06.520Z,34.80
2022-12-11T09:20:00.816Z,128.37
2022-12-11T09:22:27.346Z,75.15
2022-12-11T09:24:53.937Z,16.83
2022-12-11T09:27:21.425Z,15.32
2022-12-11T09:29:48.015Z,13.57
2022-12-11T09:32:14.606Z,13.10
2022-12-11T09:34:41.150Z,12.77
2022-12-11T09:37:07.856Z,12.95
2022-12-11T09:39:34.556Z,12.60
2022-12-11T09:42:36.725Z,15.27
2022-12-11T09:45:05.080Z,13.53
2022-12-11T09:47:36.069Z,15.63
2022-12-11T09:50:23.211Z,17.07
2022-12-11T09:52:55.904Z,14.67
2022-12-11T09:55:25.103Z,15.80
2022-12-11T09:58:38.105Z,47.90
2022-12-11T10:01:13.622Z,18.03
2022-12-11T10:03:58.531Z,16.47
2022-12-11T10:06:38.394Z,19.23
2022-12-11T10:09:16.880Z,27.27
2022-12-11T10:11:56.940Z,13.20
2022-12-11T10:14:32.766Z,15.40
2022-12-11T10:17:12.361Z,12.90
2022-12-11T10:19:41.421Z,12.70
2022-12-11T10:22:18.292Z,14.97
2022-12-11T10:25:11.593Z,15.80
2022-12-11T10:27:40.376Z,16.13
2022-12-11T10:30:19.705Z,14.60
2022-12-11T10:32:54.347Z,15.93
2022-12-11T10:35:29.866Z,14.93
2022-12-11T10:38:02.537Z,16.03
2022-12-11T10:40:30.090Z,15.63
2022-12-11T10:42:57.043Z,13.60
2022-12-11T10:47:49.974Z,14.23
2022-12-11T10:50:25.800Z,16.63
2022-12-11T10:52:53.142Z,193.90
2022-12-11T10:55:27.584Z,353.20
2022-12-11T10:57:58.707Z,74.40
2022-12-11T11:00:38.439Z,19.60
2022-12-11T11:03:19.972Z,16.60
2022-12-11T11:05:49.577Z,14.97
2022-12-11T11:08:24.740Z,14.67
2022-12-11T11:10:53.119Z,16.13
2022-12-11T11:13:24.680Z,16.17
2022-12-11T11:16:01.230Z,16.07
2022-12-11T11:18:29.691Z,15.50
2022-12-11T11:20:56.744Z,15.37
2022-12-11T11:23:24.536Z,15.20
2022-12-11T11:25:58.630Z,17.63
2022-12-11T11:28:29.283Z,15.50
2022-12-11T11:31:11.623Z,16.40
2022-12-11T11:33:52.154Z,14.73
2022-12-11T11:36:24.973Z,14.70
2022-12-11T11:39:16.375Z,15.37
2022-12-11T11:42:04.866Z,15.83
2022-12-11T11:44:39.155Z,21.13
2022-12-11T11:47:15.042Z,16.17
2022-12-11T11:49:49.565Z,14.75
2022-12-11T11:52:41.145Z,14.10
2022-12-11T11:55:18.462Z,14.03
2022-12-11T11:57:57.273Z,13.43
2022-12-11T12:00:33.113Z,13.87
2022-12-11T12:03:21.679Z,14.93
2022-12-11T12:06:04.465Z,16.70
2022-12-11T12:08:38.050Z,17.30
2022-12-11T12:11:40.337Z,16.23
2022-12-11T12:14:52.620Z,16.73
2022-12-11T12:17:45.702Z,15.10
2022-12-11T12:20:40.111Z,17.13
2022-12-11T12:23:19.400Z,13.73
2022-12-11T12:26:01.542Z,13.73
2022-12-11T12:29:00.547Z,14.53
2022-12-11T12:31:46.092Z,15.23
2022-12-11T12:34:24.745Z,15.07
2022-12-11T12:37:04.209Z,14.47
2022-12-11T12:40:01.592Z,14.67
2022-12-11T12:42:33.391Z,14.67
2022-12-11T12:45:08.999Z,13.60
2022-12-11T12:47:36.761Z,14.35
2022-12-11T12:50:10.326Z,15.70
2022-12-11T12:52:39.607Z,13.90
2022-12-11T12:55:28.996Z,15.47
2022-12-11T12:58:03.149Z,80.57
2022-12-11T13:00:40.052Z,226.47
2022-12-11T13:03:18.444Z,102.47
2022-12-11T13:05:57.433Z,15.93
2022-12-11T13:08:26.581Z,15.03
2022-12-11T13:11:10.756Z,13.43
2022-12-11T13:13:43.210Z,15.53
2022-12-11T13:16:37.999Z,14.53
2022-12-11T13:19:23.736Z,15.57
2022-12-11T13:21:57.367Z,15.82
2022-12-11T13:24:23.801Z,15.33
2022-12-11T13:26:51.228Z,16.55
2022-12-11T13:29:40.549Z,15.70
2022-12-11T13:32:09.790Z,15.97
2022-12-11T13:34:42.295Z,16.00
2022-12-11T13:37:42.669Z,14.80
2022-12-11T13:40:21.354Z,15.77
2022-12-11T13:42:53.432Z,15.67
2022-12-11T13:45:27.217Z,14.33
2022-12-11T13:47:56.524Z,15.37
2022-12-11T13:50:32.973Z,14.50
2022-12-11T13:53:01.880Z,14.65
2022-12-11T13:55:31.229Z,15.40
2022-12-11T13:57:58.461Z,15.67
2022-12-11T14:00:32.145Z,15.77
2022-12-11T14:03:03.085Z,16.17
2022-12-11T14:05:29.664Z,14.33
2022-12-11T14:07:58.901Z,14.98
2022-12-11T14:10:31.320Z,16.07
2022-12-11T14:13:12.608Z,15.20
2022-12-11T14:15:45.128Z,15.53
2022-12-11T14:18:28.477Z,16.53
2022-12-11T14:21:00.741Z,15.50
2022-12-11T14:23:29.927Z,16.30
2022-12-11T14:26:03.470Z,16.93
2022-12-11T14:28:36.929Z,16.60
2022-12-11T14:31:05.784Z,18.37
2022-12-11T14:33:40.432Z,16.33
2022-12-11T14:36:08.582Z,14.37
2022-12-11T14:38:39.245Z,40.37
2022-12-11T14:41:13.772Z,203.10
2022-12-11T14:43:47.088Z,44.80
2022-12-11T14:46:22.570Z,32.13
2022-12-11T14:49:00.962Z,17.57
2022-12-11T14:51:34.721Z,15.80
2022-12-11T14:54:02.911Z,16.00
2022-12-11T14:56:30.336Z,15.20
2022-12-11T14:59:00.076Z,15.33
2022-12-11T15:01:29.967Z,15.33
2022-12-11T15:04:06.925Z,15.17
2022-12-11T15:06:36.274Z,14.97
2022-12-11T15:09:19.691Z,15.40
2022-12-11T15:11:48.213Z,15.57
2022-12-11T15:14:18.056Z,14.10
2022-12-11T15:16:45.635Z,14.97
2022-12-11T15:19:27.848Z,14.97
2022-12-11T15:21:55.202Z,15.00
2022-12-11T15:24:27.886Z,12.87
2022-12-11T15:26:58.953Z,13.57
2022-12-11T15:29:38.528Z,14.43
2022-12-11T15:32:07.959Z,15.13
2022-12-11T15:34:48.769Z,13.47
2022-12-11T15:37:26.451Z,13.67
2022-12-11T15:39:53.995Z,13.60
2022-12-11T15:42:34.687Z,13.73
2022-12-11T15:45:01.617Z,13.07
2022-12-11T15:49:59.598Z,12.83
2022-12-11T15:52:26.106Z,14.47
2022-12-11T15:54:52.584Z,15.68
2022-12-11T15:57:22.951Z,14.80
2022-12-11T15:59:52.865Z,57.70
2022-12-11T16:02:19.396Z,89.03
2022-12-11T16:04:46.211Z,240.60
2022-12-11T16:07:18.570Z,258.73
2022-12-11T16:09:45.977Z,238.23
2022-12-11T16:12:13.985Z,202.40
2022-12-11T16:14:41.929Z,114.23
2022-12-11T16:17:09.890Z,30.83
2022-12-11T16:19:36.881Z,16.33
2022-12-11T16:24:30.220Z,17.20
2022-12-11T16:26:56.819Z,14.65
2022-12-11T16:29:23.383Z,16.15
2022-12-11T16:31:50.036Z,16.15
2022-12-11T16:34:16.601Z,15.13
2022-12-11T16:36:43.226Z,16.02
2022-12-11T16:39:12.201Z,17.35
2022-12-11T16:41:38.814Z,16.13
2022-12-11T16:44:05.599Z,17.08
2022-12-11T16:46:32.148Z,17.45
2022-12-11T16:48:58.699Z,16.35
2022-12-11T16:51:25.225Z,16.48
2022-12-11T16:53:51.825Z,17.65
2022-12-11T16:56:18.309Z,18.08
2022-12-11T16:58:44.827Z,15.77
2022-12-11T17:01:13.024Z,16.38
2022-12-11T17:03:40.162Z,16.97
2022-12-11T17:06:08.590Z,17.03
2022-12-11T17:08:35.257Z,16.60
2022-12-11T17:11:06.390Z,18.25
2022-12-11T17:13:36.088Z,16.17
2022-12-11T17:16:08.109Z,16.43
2022-12-11T17:18:35.223Z,16.97
2022-12-11T17:21:15.656Z,15.50
2022-12-11T17:23:42.667Z,15.77
2022-12-11T17:31:07.463Z,16.10
2022-12-11T17:33:34.008Z,16.60
2022-12-11T17:36:04.756Z,17.17
2022-12-11T17:38:31.285Z,18.30
2022-12-11T17:40:58.418Z,14.35
2022-12-11T17:43:25.105Z,14.07
2022-12-11T17:45:52.653Z,15.27
2022-12-11T17:48:22.467Z,13.67
2022-12-11T17:50:50.974Z,14.17
2022-12-11T17:53:19.275Z,15.20
2022-12-11T17:55:46.680Z,14.90
2022-12-11T17:58:15.830Z,14.50
2022-12-11T18:00:44.003Z,13.93
2022-12-11T18:03:11.413Z,15.57
2022-12-11T18:05:45.912Z,15.53
2022-12-11T18:08:19.572Z,14.73
2022-12-11T18:10:46.376Z,15.63
2022-12-11T18:13:13.152Z,14.90
2022-12-11T18:15:40.074Z,15.48
2022-12-11T18:18:07.518Z,15.00
2022-12-11T18:20:35.089Z,15.53
2022-12-11T18:23:01.912Z,15.83
2022-12-11T18:25:28.397Z,14.80
2022-12-11T18:27:55.394Z,16.27
2022-12-11T18:32:49.934Z,20.77
2022-12-11T18:35:16.957Z,15.57
2022-12-11T18:40:11.925Z,15.93
2022-12-11T18:42:38.639Z,14.83
2022-12-11T18:45:06.894Z,15.90
2022-12-11T18:47:33.583Z,20.43
2022-12-11T18:50:04.086Z,17.92
2022-12-11T18:52:34.364Z,15.33
2022-12-11T18:55:01.011Z,15.27
2022-12-11T18:57:27.478Z,17.27
2022-12-11T18:59:54.316Z,15.15
2022-12-11T19:02:21.688Z,15.30
2022-12-11T19:04:48.408Z,15.77
2022-12-11T19:07:14.926Z,17.15
2022-12-11T19:09:46.187Z,15.48
2022-12-11T19:12:14.682Z,15.20
2022-12-11T19:14:41.534Z,15.60
2022-12-11T19:17:08.005Z,14.18
2022-12-11T19:19:34.646Z,14.55
2022-12-11T19:22:01.190Z,16.45
2022-12-11T19:24:27.841Z,15.60
2022-12-11T19:26:54.437Z,15.25
2022-12-11T19:29:27.796Z,16.73
2022-12-11T19:31:55.638Z,15.60
2022-12-11T19:34:23.191Z,16.20
2022-12-11T19:36:50.072Z,16.03
2022-12-11T19:39:16.778Z,15.35
2022-12-11T19:41:43.596Z,16.67
2022-12-11T19:44:10.365Z,15.85
2022-12-11T19:46:37.236Z,14.68
2022-12-11T19:51:38.513Z,15.23
2022-12-11T19:54:07.593Z,15.20
2022-12-11T19:56:34.843Z,16.63
2022-12-11T19:59:03.017Z,15.33
2022-12-11T20:01:31.783Z,16.13
2022-12-11T20:04:03.813Z,16.13
2022-12-11T20:06:32.945Z,16.00
2022-12-11T20:09:00.551Z,15.10
2022-12-11T20:11:27.499Z,15.70
2022-12-11T20:13:57.144Z,15.60
2022-12-11T20:16:46.278Z,15.83
2022-12-11T20:19:11.024Z,15.40
2022-12-11T20:21:37.528Z,15.25
2022-12-11T20:24:04.121Z,15.13
2022-12-11T20:26:32.582Z,15.25
2022-12-11T20:28:59.125Z,15.23
2022-12-11T20:31:26.366Z,17.10
2022-12-11T20:33:55.851Z,15.63
2022-12-11T20:36:23.455Z,15.60
2022-12-11T20:38:50.406Z,15.67
2022-12-11T20:43:46.468Z,15.03
2022-12-11T20:46:17.831Z,15.73
2022-12-11T20:48:45.323Z,16.80
2022-12-11T20:51:13.987Z,16.50
2022-12-11T20:53:41.351Z,15.80
2022-12-11T20:56:17.796Z,16.20
2022-12-11T20:58:45.252Z,16.55
2022-12-11T21:01:19.675Z,17.90
2022-12-11T21:03:47.053Z,16.53
2022-12-11T21:06:22.423Z,16.33
2022-12-11T21:08:49.282Z,17.10
2022-12-11T21:11:15.951Z,16.95
2022-12-11T21:13:42.464Z,17.10
2022-12-11T21:16:10.266Z,17.42
2022-12-11T21:18:37.393Z,17.17
2022-12-11T21:21:04.502Z,17.40
2022-12-11T21:23:31.473Z,18.67
2022-12-11T21:28:29.277Z,16.17
2022-12-11T21:31:04.289Z,17.00
2022-12-11T21:33:30.834Z,17.33
2022-12-11T21:35:59.148Z,17.58
2022-12-11T21:38:26.559Z,16.87
2022-12-11T21:40:53.738Z,17.63
2022-12-11T21:43:20.308Z,19.13
2022-12-11T21:46:02.860Z,17.45
2022-12-11T21:48:29.706Z,16.83
2022-12-11T21:51:05.106Z,17.70
2022-12-11T21:53:31.670Z,18.23
2022-12-11T21:55:58.201Z,17.23
2022-12-11T21:58:24.705Z,16.10
2022-12-11T22:00:51.254Z,17.65
2022-12-11T22:03:17.774Z,17.00
2022-12-11T22:05:44.321Z,17.00
2022-12-11T22:08:10.878Z,18.00
2022-12-11T22:10:37.456Z,17.17
2022-12-11T22:13:03.932Z,17.67
2022-12-11T22:15:30.532Z,17.02
2022-12-11T22:17:57.076Z,18.02
2022-12-11T22:20:23.583Z,17.63
2022-12-11T22:22:50.127Z,17.83
2022-12-11T22:25:16.727Z,18.85
2022-12-11T22:27:43.411Z,17.70
2022-12-11T22:30:11.570Z,19.15
2022-12-11T22:32:38.077Z,17.40
2022-12-11T22:35:04.876Z,17.88
2022-12-11T22:37:31.671Z,17.52
2022-12-11T22:39:58.196Z,17.65
2022-12-11T22:42:24.739Z,18.02
2022-12-11T22:44:51.296Z,20.10
2022-12-11T22:47:17.829Z,17.85
2022-12-11T22:49:44.506Z,17.83
2022-12-11T22:52:11.077Z,20.08
2022-12-11T22:54:41.952Z,18.88
2022-12-11T22:57:08.660Z,15.97
2022-12-11T22:59:36.079Z,17.73
2022-12-11T23:02:03.217Z,17.30
2022-12-11T23:04:29.877Z,18.37
2022-12-11T23:06:56.573Z,17.25
2022-12-11T23:09:24.095Z,17.98
2022-12-11T23:11:50.893Z,16.97
2022-12-11T23:14:18.791Z,18.23
2022-12-11T23:16:45.501Z,16.70
2022-12-11T23:19:12.829Z,18.20
2022-12-11T23:21:39.456Z,17.40
2022-12-11T23:24:07.558Z,17.20
2022-12-11T23:26:34.204Z,16.77
2022-12-11T23:29:01.190Z,16.85
2022-12-11T23:33:54.362Z,17.33
2022-12-11T23:36:21.110Z,17.52
2022-12-11T23:38:54.136Z,17.95
2022-12-11T23:41:21.241Z,17.77
2022-12-11T23:43:47.756Z,16.77
2022-12-11T23:46:18.024Z,16.73
2022-12-11T23:48:44.999Z,16.27
2022-12-11T23:53:42.980Z,16.73
2022-12-11T23:56:18.188Z,16.13
2022-12-11T23:58:45.062Z,17.70
